createdAt,value
2023-03-30T00:03:31.201Z,16.98
2023-03-30T00:08:34.945Z,13.07
2023-03-30T00:13:37.902Z,15.70
2023-03-30T00:18:41.202Z,16.67
2023-03-30T00:23:44.798Z,15.73
2023-03-30T00:28:46.941Z,15.32
2023-03-30T00:33:49.080Z,13.77
2023-03-30T00:38:52.641Z,15.77
2023-03-30T00:44:00.030Z,14.80
2023-03-30T00:49:05.346Z,14.27
2023-03-30T00:54:13.713Z,14.30
2023-03-30T00:59:15.897Z,14.18
2023-03-30T01:04:18.249Z,14.40
2023-03-30T01:09:21.821Z,13.32
2023-03-30T01:14:23.992Z,15.13
2023-03-30T01:19:52.253Z,14.32
2023-03-30T01:25:22.527Z,16.38
2023-03-30T01:30:40.271Z,14.45
2023-03-30T01:36:27.377Z,13.10
2023-03-30T01:41:36.818Z,14.50
2023-03-30T01:46:44.990Z,12.95
2023-03-30T01:51:53.749Z,12.43
2023-03-30T01:57:02.964Z,13.32
2023-03-30T02:02:07.364Z,14.13
2023-03-30T02:07:14.479Z,12.30
2023-03-30T02:12:19.728Z,11.88
2023-03-30T02:17:23.878Z,12.07
2023-03-30T02:22:27.365Z,12.30
2023-03-30T02:27:32.523Z,11.23
2023-03-30T02:32:44.404Z,11.95
2023-03-30T02:38:16.517Z,11.13
2023-03-30T02:43:29.835Z,10.48
2023-03-30T02:48:42.549Z,10.05
2023-03-30T02:53:54.246Z,9.52
2023-03-30T02:59:04.222Z,9.48
2023-03-30T03:04:08.692Z,9.40
2023-03-30T03:09:11.245Z,8.02
2023-03-30T03:14:14.813Z,8.07
2023-03-30T03:19:16.875Z,6.82
2023-03-30T03:24:19.014Z,6.30
2023-03-30T03:29:22.611Z,6.18
2023-03-30T03:34:24.756Z,6.13
2023-03-30T03:39:26.891Z,6.50
2023-03-30T03:44:30.632Z,6.20
2023-03-30T03:49:32.728Z,5.38
2023-03-30T03:54:34.820Z,5.03
2023-03-30T03:59:38.409Z,5.35
2023-03-30T04:04:40.548Z,4.60
2023-03-30T04:09:42.716Z,4.45
2023-03-30T04:14:46.217Z,5.22
2023-03-30T04:19:48.295Z,4.53
2023-03-30T04:24:50.611Z,3.88
2023-03-30T04:29:54.164Z,3.80
2023-03-30T04:34:56.228Z,3.45
2023-03-30T04:39:59.115Z,4.13
2023-03-30T04:45:03.246Z,3.80
2023-03-30T04:50:06.160Z,3.53
2023-03-30T04:55:09.086Z,3.38
2023-03-30T05:00:14.078Z,2.80
2023-03-30T05:05:16.328Z,3.30
2023-03-30T05:10:18.447Z,3.00
2023-03-30T05:15:22.134Z,2.83
2023-03-30T05:20:24.305Z,2.67
2023-03-30T05:25:26.444Z,2.88
2023-03-30T05:30:30.040Z,2.95
2023-03-30T05:35:32.257Z,2.35
2023-03-30T05:40:34.358Z,2.65
2023-03-30T05:45:38.538Z,2.72
2023-03-30T05:50:40.717Z,2.63
2023-03-30T05:55:44.352Z,2.70
2023-03-30T06:00:47.884Z,3.08
2023-03-30T06:05:52.553Z,3.10
2023-03-30T06:10:55.992Z,2.15
2023-03-30T06:16:02.925Z,2.92
2023-03-30T06:21:06.525Z,2.30
2023-03-30T06:26:09.195Z,3.30
2023-03-30T06:31:13.191Z,3.78
2023-03-30T06:36:16.881Z,3.20
2023-03-30T06:41:19.088Z,2.90
2023-03-30T06:46:22.837Z,2.60
2023-03-30T06:51:25.371Z,3.40
2023-03-30T06:56:27.526Z,3.00
2023-03-30T07:01:31.547Z,3.67
2023-03-30T07:06:33.710Z,3.22
2023-03-30T07:11:35.931Z,2.80
2023-03-30T07:16:39.548Z,2.95
2023-03-30T07:21:41.683Z,4.00
2023-03-30T07:26:43.882Z,3.53
2023-03-30T07:31:47.519Z,3.10
2023-03-30T07:36:49.824Z,2.80
2023-03-30T07:41:52.088Z,2.90
2023-03-30T07:46:55.868Z,2.30
2023-03-30T07:51:58.072Z,2.63
2023-03-30T07:57:00.483Z,2.67
2023-03-30T08:02:04.231Z,3.20
2023-03-30T08:07:06.458Z,2.78
2023-03-30T08:12:08.573Z,2.40
2023-03-30T08:17:12.163Z,2.20
2023-03-30T08:22:14.403Z,2.33
2023-03-30T08:27:16.619Z,2.00
2023-03-30T08:32:20.338Z,2.28
2023-03-30T08:37:22.455Z,2.50
2023-03-30T08:42:41.904Z,2.78
2023-03-30T08:47:49.720Z,2.72
2023-03-30T08:52:53.058Z,2.67
2023-03-30T08:58:02.890Z,2.65
2023-03-30T09:03:17.721Z,2.50
2023-03-30T09:08:22.572Z,2.60
2023-03-30T09:13:28.244Z,2.50
2023-03-30T09:18:33.561Z,2.58
2023-03-30T09:23:35.749Z,2.80
2023-03-30T09:28:46.648Z,2.03
2023-03-30T09:33:57.877Z,2.22
2023-03-30T09:39:00.364Z,2.80
2023-03-30T09:44:02.790Z,2.65
2023-03-30T09:49:16.863Z,2.45
2023-03-30T09:54:19.921Z,2.55
2023-03-30T09:59:30.434Z,2.90
2023-03-30T10:04:34.480Z,3.67
2023-03-30T10:09:44.572Z,3.45
2023-03-30T10:14:46.782Z,3.20
2023-03-30T10:24:56.497Z,3.20
2023-03-30T10:30:08.050Z,2.40
2023-03-30T10:35:11.859Z,2.75
2023-03-30T10:40:17.774Z,3.35
2023-03-30T10:45:26.359Z,2.72
2023-03-30T10:50:39.287Z,2.55
2023-03-30T10:55:49.017Z,2.88
2023-03-30T11:01:04.260Z,2.45
2023-03-30T11:06:15.836Z,2.13
2023-03-30T11:11:22.614Z,2.20
2023-03-30T11:16:40.011Z,2.28
2023-03-30T11:21:49.369Z,2.33
2023-03-30T11:26:57.327Z,2.17
2023-03-30T11:32:14.873Z,2.40
2023-03-30T11:37:26.013Z,1.75
2023-03-30T11:42:31.483Z,1.75
2023-03-30T11:47:55.418Z,1.67
2023-03-30T11:53:11.485Z,2.08
2023-03-30T11:58:27.091Z,2.00
2023-03-30T12:03:40.316Z,2.22
2023-03-30T12:09:00.917Z,2.10
2023-03-30T12:14:05.200Z,2.20
2023-03-30T12:19:13.579Z,2.03
2023-03-30T12:24:23.952Z,2.22
2023-03-30T12:30:01.872Z,2.42
2023-03-30T12:35:38.974Z,2.88
2023-03-30T12:40:46.137Z,2.53
2023-03-30T12:51:02.254Z,3.00
2023-03-30T12:56:11.037Z,2.65
2023-03-30T13:01:32.468Z,3.03
2023-03-30T13:06:38.988Z,2.20
2023-03-30T13:12:05.862Z,2.70
2023-03-30T13:17:15.808Z,2.42
2023-03-30T13:22:29.041Z,2.47
2023-03-30T13:27:37.526Z,2.28
2023-03-30T13:32:55.655Z,2.17
2023-03-30T13:38:23.110Z,2.72
2023-03-30T13:43:39.881Z,2.30
2023-03-30T13:48:57.698Z,2.65
2023-03-30T13:54:03.427Z,2.50
2023-03-30T13:59:13.546Z,2.78
2023-03-30T14:04:16.057Z,2.35
2023-03-30T14:09:22.735Z,2.30
2023-03-30T14:14:33.549Z,2.50
2023-03-30T14:19:38.499Z,2.30
2023-03-30T14:24:56.923Z,2.35
2023-03-30T14:30:00.778Z,2.75
2023-03-30T14:35:06.290Z,2.63
2023-03-30T14:40:15.146Z,2.20
2023-03-30T14:45:19.528Z,2.65
2023-03-30T14:50:23.036Z,2.88
2023-03-30T14:55:26.539Z,2.88
2023-03-30T15:00:30.407Z,2.55
2023-03-30T15:05:36.402Z,2.05
2023-03-30T15:10:45.805Z,2.30
2023-03-30T15:15:49.645Z,2.50
2023-03-30T15:20:52.284Z,2.25
2023-03-30T15:25:59.314Z,2.88
2023-03-30T15:31:03.107Z,2.95
2023-03-30T15:36:10.513Z,2.33
2023-03-30T15:46:16.794Z,1.90
2023-03-30T15:51:25.326Z,2.85
2023-03-30T15:56:32.203Z,2.53
2023-03-30T16:01:51.672Z,2.35
2023-03-30T16:06:54.061Z,2.55
2023-03-30T16:11:58.569Z,2.72
2023-03-30T16:17:02.044Z,2.80
2023-03-30T16:22:04.240Z,2.53
2023-03-30T16:27:06.811Z,2.10
2023-03-30T16:32:10.713Z,3.05
2023-03-30T16:37:12.996Z,2.95
2023-03-30T16:42:15.042Z,2.92
2023-03-30T16:47:18.652Z,3.28
2023-03-30T16:52:21.028Z,3.33
2023-03-30T16:57:23.155Z,3.33
2023-03-30T17:02:26.695Z,2.65
2023-03-30T17:07:28.826Z,2.65
2023-03-30T17:12:30.978Z,3.20
2023-03-30T17:17:34.506Z,2.70
2023-03-30T17:22:36.774Z,3.42
2023-03-30T17:27:43.579Z,3.47
2023-03-30T17:32:50.070Z,3.08
2023-03-30T17:37:58.304Z,3.45
2023-03-30T17:43:01.264Z,3.85
2023-03-30T17:48:08.616Z,3.30
2023-03-30T17:53:13.701Z,4.80
2023-03-30T17:58:19.411Z,3.50
2023-03-30T18:03:28.926Z,4.13
2023-03-30T18:08:33.845Z,3.85
2023-03-30T18:13:39.047Z,3.45
2023-03-30T18:18:46.509Z,4.38
2023-03-30T18:23:48.802Z,3.80
2023-03-30T18:28:51.046Z,3.42
2023-03-30T18:33:54.517Z,4.20
2023-03-30T18:38:56.652Z,4.20
2023-03-30T18:43:58.769Z,4.15
2023-03-30T18:49:02.399Z,3.75
2023-03-30T18:54:06.628Z,3.85
2023-03-30T18:59:10.141Z,4.30
2023-03-30T19:04:15.393Z,3.70
2023-03-30T19:09:17.548Z,4.85
2023-03-30T19:14:19.642Z,4.10
2023-03-30T19:19:23.238Z,3.95
2023-03-30T19:24:25.368Z,4.22
2023-03-30T19:29:27.521Z,3.72
2023-03-30T19:34:31.151Z,3.92
2023-03-30T19:39:33.264Z,4.55
2023-03-30T19:44:35.430Z,3.97
2023-03-30T19:49:38.938Z,4.03
2023-03-30T19:54:41.580Z,3.92
2023-03-30T19:59:43.766Z,3.90
2023-03-30T20:04:47.652Z,4.47
2023-03-30T20:09:49.921Z,3.42
2023-03-30T20:14:52.256Z,3.90
2023-03-30T20:19:55.918Z,4.82
2023-03-30T20:24:58.166Z,4.28
2023-03-30T20:30:00.452Z,4.10
2023-03-30T20:35:04.389Z,3.80
2023-03-30T20:40:08.238Z,3.75
2023-03-30T20:45:11.604Z,3.70
2023-03-30T20:50:15.245Z,4.00
2023-03-30T20:55:17.630Z,3.72
2023-03-30T21:00:20.819Z,3.08
2023-03-30T21:05:24.508Z,3.78
2023-03-30T21:10:26.664Z,3.92
2023-03-30T21:15:28.777Z,3.00
2023-03-30T21:20:32.320Z,3.88
2023-03-30T21:25:34.462Z,3.55
2023-03-30T21:30:36.740Z,3.45
2023-03-30T21:35:40.434Z,3.70
2023-03-30T21:40:42.836Z,3.22
2023-03-30T21:45:50.841Z,3.42
2023-03-30T21:51:00.443Z,3.50
2023-03-30T21:56:04.039Z,2.50
2023-03-30T22:01:12.236Z,2.78
2023-03-30T22:06:17.737Z,2.67
2023-03-30T22:11:21.861Z,2.80
2023-03-30T22:16:25.472Z,3.08
2023-03-30T22:21:29.955Z,2.55
2023-03-30T22:26:32.600Z,2.47
2023-03-30T22:31:34.768Z,2.65
2023-03-30T22:36:39.231Z,3.03
2023-03-30T22:41:41.393Z,2.45
2023-03-30T22:46:43.588Z,3.08
2023-03-30T22:51:47.226Z,2.72
2023-03-30T22:56:49.409Z,2.22
2023-03-30T23:01:52.254Z,2.85
2023-03-30T23:06:56.659Z,2.88
2023-03-30T23:11:59.467Z,2.55
2023-03-30T23:17:02.177Z,2.63
2023-03-30T23:22:05.920Z,2.78
2023-03-30T23:27:07.989Z,3.33
2023-03-30T23:32:10.356Z,2.53
2023-03-30T23:37:13.932Z,3.17
2023-03-30T23:42:16.172Z,2.60
2023-03-30T23:47:18.397Z,2.95
2023-03-30T23:52:22.111Z,3.05
2023-03-30T23:57:24.321Z,2.58
